• Join FlightAware (Why Join?)
  • Login
  • US Flag 
02:54AM EDT


 

Airport Tracker/Info


-or-


 

Live Flight TrackerFlight Track Log ✈ CPZ5718 ✈ 25-Jun-2013 ✈ KALB - KMSP

Flight Track Log - Related Links

Times and Time Zones

All times are in EDT time to prevent confusion due to time zone crossing. See the CPZ5718 flight status page for this flight to view local times or setup timezone preferences in your user account.

Time Position Orientation Groundspeed Altitude Reporting Facility
EDT Latitude Longitude Course Direction KTS MPH feet Rate Location/Type
06:48AM 42.7694 -73.8089 281° West 166 191 1,000  Level Boston Center
06:49AM 42.8025 -73.8211 345° North 179 206 2,100 1,740 Climbing Boston Center
06:50AM 42.8478 -73.8758 318° Northwest 237 273 4,000 2,220 Climbing Boston Center
06:51AM 42.8969 -73.9308 321° Northwest 259 298 6,500 2,640 Climbing Boston Center
06:52AM 42.8392 -74.3681 283° West  Level FlightAware Approximate
06:52AM 42.9544 -73.9975 320° Northwest 265 305 9,200  Level Boston Center
06:53AM 42.8632 -74.5127 283° West  Level FlightAware Approximate
06:53AM 43.0119 -74.0700 317° Northwest 270 311 11,100  Level Boston Center
06:54AM 42.8967 -74.6473 281° West  Level FlightAware Approximate
06:54AM 43.0794 -74.1514 319° Northwest 313 360 13,200  Level Boston Center
06:55AM 43.1278 -74.2581 302° West 324 373 14,500 1,740 Climbing Boston Center
06:56AM 43.1297 -74.3917 271° West 330 380 16,700 1,680 Climbing Boston Center
06:57AM 43.1339 -74.5169 273° West 356 410 17,900 1,440 Climbing Boston Center
06:58AM 43.1375 -74.6594 272° West 369 425 19,600 1,500 Climbing Boston Center
06:59AM 43.1386 -74.8017 271° West 374 430 21,000 1,440 Climbing Boston Center
07:00AM 43.1419 -74.9500 272° West 381 438 22,500 1,500 Climbing Boston Center
07:01AM 43.1447 -75.0981 272° West 387 445 24,000 1,200 Climbing Boston Center
07:02AM 43.1472 -75.2547 271° West 400 460 25,000 1,020 Climbing Boston Center
07:03AM 43.1453 -75.4111 269° West 407 468 26,100 1,020 Climbing Boston Center
07:04AM 43.1369 -75.5700 266° West 412 474 27,100 960 Climbing Boston Center
07:05AM 43.1283 -75.7292 266° West 418 481 28,100 900 Climbing Boston Center
07:06AM 43.1214 -75.8881 267° West 418 481 28,900 900 Climbing Boston Center
07:07AM 43.1122 -76.0497 266° West 423 487 30,000 1,020 Climbing Boston Center
07:08AM 43.1006 -76.2197 265° West 418 481 31,000 960 Climbing Boston Center
07:09AM 43.0931 -76.3786 266° West 418 481 32,000 840 Climbing Boston Center
07:11AM 43.0778 -76.6150 265° West 404 465 33,300 720 Climbing Cleveland Center
07:12AM 43.0647 -76.7864 264° West 404 465 34,000 300 Climbing Cleveland Center
07:13AM 43.0553 -76.9433 265° West 409 471 34,000  Level Cleveland Center
07:14AM 43.0433 -77.0975 264° West 409 471 34,000  Level Cleveland Center
07:15AM 43.0333 -77.2542 265° West 409 471 34,000  Level Cleveland Center
07:16AM 43.0233 -77.4139 265° West 415 478 34,000  Level Cleveland Center
07:17AM 43.0131 -77.5733 265° West 422 486 34,000  Level Cleveland Center
07:18AM 43.0003 -77.7358 264° West 427 491 34,000  Level Cleveland Center
07:19AM 42.9875 -77.8983 264° West 427 491 34,000  Level Cleveland Center
07:20AM 42.9744 -78.0578 264° West 427 491 34,000  Level Cleveland Center
07:21AM 42.9633 -78.2200 265° West 427 491 34,000  Level Cleveland Center
07:22AM 42.9519 -78.3819 265° West 433 498 34,000  Level Cleveland Center
07:23AM 42.9403 -78.5414 264° West 433 498 34,000  Level Cleveland Center
07:24AM 42.9408 -78.7000 270° West 428 493 34,000  Level Cleveland Center
07:25AM 42.9744 -78.8522 287° West 417 480 34,000  Level Cleveland Center
07:26AM 43.0081 -79.0075 287° West 427 491 34,000  Level Cleveland Center
07:27AM 43.0414 -79.1631 286° West 427 491 34,000  Level Cleveland Center
07:28AM 43.0744 -79.3156 287° West 432 497 34,000  Level Cleveland Center
07:29AM 43.1000 -79.5167 280° West 430 495 34,000  Level Toronto Center
07:30AM 43.1333 -79.6500 289° West 430 495 34,000  Level Toronto Center
07:31AM 43.1667 -79.8167 285° West 430 495 34,000  Level Toronto Center
07:32AM 43.2000 -79.9833 285° West 430 495 34,000  Level Toronto Center
07:33AM 43.2333 -80.1333 287° West 430 495 34,000  Level Toronto Center
07:34AM 43.2667 -80.3000 285° West 430 495 34,000  Level Toronto Center
07:35AM 43.3000 -80.4500 287° West 420 483 34,000  Level Toronto Center
07:36AM 43.3333 -80.6000 287° West 420 483 34,000  Level Toronto Center
07:37AM 43.3667 -80.7500 287° West 420 483 34,000  Level Toronto Center
07:38AM 43.3833 -80.9167 278° West 420 483 34,000  Level Toronto Center
07:39AM 43.4167 -81.0833 285° West 420 483 34,000  Level Toronto Center
07:40AM 43.4333 -81.2167 280° West 420 483 34,000  Level Toronto Center
07:41AM 43.4667 -81.3833 285° West 420 483 34,000  Level Toronto Center
07:42AM 43.5000 -81.5333 287° West 420 483 34,000  Level Toronto Center
07:43AM 43.5333 -81.6833 287° West 420 483 34,000  Level Toronto Center
07:44AM 43.5667 -81.8500 285° West 420 483 34,000  Level Toronto Center
07:45AM 43.5833 -82.0000 279° West 420 483 34,000  Level Toronto Center
07:46AM 43.6167 -82.1667 285° West 420 483 34,000  Level Toronto Center
07:47AM 43.6500 -82.3000 289° West 410 472 34,000  Level Toronto Center
07:48AM 43.6833 -82.4667 286° West 410 472 34,000  Level Toronto Center
07:49AM 43.7125 -82.6300 284° West 409 471 34,000  Level Minneapolis Center
07:50AM 43.7394 -82.7822 284° West 408 470 34,000  Level Minneapolis Center
07:51AM 43.7500 -82.9167 276° West 410 472 34,000  Level Toronto Center
07:52AM 43.7833 -83.0667 287° West 410 472 34,000  Level Toronto Center
07:53AM 43.8000 -83.2333 278° West 420 483 34,000  Level Toronto Center
07:54AM 43.8333 -83.3833 287° West 410 472 34,000  Level Toronto Center
07:55AM 43.8667 -83.5500 286° West 420 483 34,000  Level Toronto Center
07:56AM 43.9000 -83.7000 287° West 420 483 34,100 420 Climbing Toronto Center
07:57AM 43.9167 -83.8500 279° West 410 472 34,900 720 Climbing Toronto Center
07:58AM 43.9500 -84.0167 286° West 410 472 35,600 540 Climbing Toronto Center
07:59AM 43.9667 -84.1500 280° West 410 472 36,000 180 Climbing Toronto Center
08:00AM 43.9833 -84.3167 278° West 410 472 36,000  Level Toronto Center
08:01AM 44.0167 -84.4500 289° West 420 483 36,000  Level Toronto Center
08:02AM 44.0333 -84.6500 277° West 430 495 36,000  Level Toronto Center
08:03AM 44.0667 -84.7833 289° West 420 483 36,000  Level Toronto Center
08:04AM 44.0833 -84.9500 278° West 420 483 36,000  Level Toronto Center
08:05AM 44.1167 -85.1167 286° West 430 495 36,000  Level Toronto Center
08:06AM 44.1500 -85.2500 289° West 420 483 36,000  Level Toronto Center
08:07AM 44.1667 -85.4500 277° West 410 472 36,000  Level Toronto Center
08:08AM 44.1833 -85.5833 280° West 420 483 36,000  Level Toronto Center
08:09AM 44.2064 -85.6397 300° West 413 475 36,000  Level Minneapolis Center
08:10AM 44.2283 -85.7972 281° West 414 476 36,000  Level Minneapolis Center
08:11AM 44.2511 -85.9542 282° West 412 474 36,000  Level Minneapolis Center
08:12AM 44.2742 -86.1103 282° West 411 473 36,000  Level Minneapolis Center
08:13AM 44.3008 -86.2972 281° West 407 468 36,000  Level Minneapolis Center
08:14AM 44.3231 -86.4522 281° West 407 468 36,000  Level Minneapolis Center
08:15AM 44.3450 -86.6083 281° West 408 470 36,000  Level Minneapolis Center
08:16AM 44.3686 -86.7672 282° West 414 476 36,000  Level Minneapolis Center
08:17AM 44.3894 -86.9242 281° West 413 475 36,000  Level Minneapolis Center
08:18AM 44.4100 -87.0800 281° West 409 471 36,000  Level Minneapolis Center
08:19AM 44.4325 -87.2436 281° West 417 480 36,000  Level Minneapolis Center
08:20AM 44.4536 -87.3967 281° West 413 475 36,000  Level Minneapolis Center
08:21AM 44.4733 -87.5542 280° West 412 474 36,000  Level Minneapolis Center
08:22AM 44.4989 -87.7425 281° West 412 474 36,000  Level Minneapolis Center
08:23AM 44.5183 -87.8983 280° West 408 470 36,000  Level Minneapolis Center
08:24AM 44.5381 -88.0486 280° West 402 463 36,000  Level Minneapolis Center
08:25AM 44.5567 -88.2053 280° West 405 466 36,000  Level Minneapolis Center
08:26AM 44.5756 -88.3633 280° West 411 473 36,000  Level Minneapolis Center
08:27AM 44.5933 -88.5203 279° West 410 472 36,000  Level Minneapolis Center
08:28AM 44.6158 -88.7036 280° West 410 472 36,000  Level Minneapolis Center
08:29AM 44.6325 -88.8600 279° West 408 470 36,000  Level Minneapolis Center
08:30AM 44.6497 -89.0172 279° West 408 470 36,000  Level Minneapolis Center
08:31AM 44.6667 -89.1711 279° West 403 464 36,000  Level Minneapolis Center
08:32AM 44.6839 -89.3258 279° West 402 463 36,000  Level Minneapolis Center
08:33AM 44.7006 -89.4800 279° West 401 461 36,000 -360 Level Minneapolis Center
08:34AM 44.7167 -89.6625 277° West 403 464 35,300 -840 Descending Minneapolis Center
08:35AM 44.6686 -89.7953 243° Southwest 385 443 34,300 -1,020 Descending Minneapolis Center
08:36AM 44.6094 -89.9214 237° Southwest 384 442 33,300 -1,020 Descending Minneapolis Center
08:37AM 44.5525 -90.0411 236° Southwest 373 429 32,300 -1,020 Descending Minneapolis Center
08:38AM 44.4950 -90.1589 236° Southwest 369 425 31,300 -1,020 Descending Minneapolis Center
08:39AM 44.4694 -90.2922 255° West 360 414 30,300 -1,080 Descending Minneapolis Center
08:40AM 44.5222 -90.4419 296° West 367 422 29,100 -1,080 Descending Minneapolis Center
08:41AM 44.5728 -90.5783 298° West 385 443 28,100 -1,020 Descending Minneapolis Center
08:42AM 44.6225 -90.7183 297° West 384 442 27,100 -1,020 Descending Minneapolis Center
08:43AM 44.6753 -90.8611 298° West 408 470 26,100 -1,020 Descending Minneapolis Center
08:45AM 44.7192 -91.0072 293° West 410 472 25,100 -1,020 Descending Minneapolis Center
08:46AM 44.7572 -91.1542 290° West 404 465 24,100 -540 Descending Minneapolis Center
08:47AM 44.7956 -91.3022 290° West 404 465 24,000 -60 Descending Minneapolis Center
08:48AM 44.8347 -91.4500 291° West 405 466 24,000 -720 Level Minneapolis Center
08:49AM 44.8797 -91.6278 290° West 404 465 22,600 -2,040 Descending Minneapolis Center
08:50AM 44.9186 -91.7753 290° West 403 464 19,900 -2,640 Descending Minneapolis Center
08:51AM 44.9558 -91.9186 290° West 392 451 17,300 -2,460 Descending Minneapolis Center
08:52AM 44.9894 -92.0528 290° West 368 423 14,900 -2,400 Descending Minneapolis Center
08:53AM 45.0236 -92.1869 290° West 365 420 12,500 -1,920 Descending Minneapolis Center
08:54AM 45.0433 -92.3244 282° West 366 421 11,000 -780 Descending Minneapolis Center
08:55AM 45.0219 -92.4644 258° West 366 421 11,000  Level Minneapolis Center
08:56AM 44.9947 -92.6314 257° West 366 421 11,000 -420 Level Minneapolis Center
08:57AM 44.9744 -92.7586 257° West 331 381 10,200 -900 Descending Minneapolis Center
08:58AM 44.9564 -92.8736 258° West 305 351 9,200 -1,020 Descending Minneapolis Center
08:59AM 44.9375 -92.9878 257° West 302 348 8,200 -600 Descending Minneapolis Center
09:00AM 44.9386 -93.0861 271° West 258 297 8,000 -780 Descending Minneapolis Center
09:01AM 44.9878 -93.1667 311° West 226 260 6,700 -1,140 Descending Minneapolis Center
09:02AM 45.0283 -93.2331 311° West 225 259 5,700 -840 Descending Minneapolis Center
09:03AM 45.0600 -93.3061 302° West 221 254 5,000 -360 Descending Minneapolis Center
09:04AM 45.0942 -93.3792 304° West 225 259 5,000  Level Minneapolis Center
09:05AM 45.1164 -93.4550 293° West 218 251 5,000  Level Minneapolis Center
09:06AM 45.0694 -93.4547 180° South 187 215 5,000 -480 Level Minneapolis Center
09:07AM 45.0119 -93.4119 152° Southeast 192 221 4,100 -780 Descending Minneapolis Center
09:08AM 44.9672 -93.3753 150° Southeast 188 216 3,500 -600 Descending Minneapolis Center